sensor_id;sensor_type;location;lat;lon;timestamp;temperature;humidity
29817;DHT22;16805;52.956;5.906;2023-08-30T00:01:15;15.80;99.90
29817;DHT22;16805;52.956;5.906;2023-08-30T00:04:09;15.80;99.90
29817;DHT22;16805;52.956;5.906;2023-08-30T00:07:00;15.80;99.90
29817;DHT22;16805;52.956;5.906;2023-08-30T00:09:48;15.90;99.90
29817;DHT22;16805;52.956;5.906;2023-08-30T00:12:13;15.90;99.90
29817;DHT22;16805;52.956;5.906;2023-08-30T00:14:40;15.90;99.90
29817;DHT22;16805;52.956;5.906;2023-08-30T00:17:07;15.90;99.90
29817;DHT22;16805;52.956;5.906;2023-08-30T00:19:42;15.90;99.90
29817;DHT22;16805;52.956;5.906;2023-08-30T00:22:28;16.00;99.90
29817;DHT22;16805;52.956;5.906;2023-08-30T00:28:23;16.00;99.90
29817;DHT22;16805;52.956;5.906;2023-08-30T00:31:19;16.00;99.90
29817;DHT22;16805;52.956;5.906;2023-08-30T00:33:47;15.90;99.90
29817;DHT22;16805;52.956;5.906;2023-08-30T00:36:14;16.00;99.90
29817;DHT22;16805;52.956;5.906;2023-08-30T00:38:42;16.00;99.90
29817;DHT22;16805;52.956;5.906;2023-08-30T00:41:11;15.90;99.90
29817;DHT22;16805;52.956;5.906;2023-08-30T00:43:40;15.90;99.90
29817;DHT22;16805;52.956;5.906;2023-08-30T00:46:15;15.90;99.90
29817;DHT22;16805;52.956;5.906;2023-08-30T00:49:02;15.80;99.90
29817;DHT22;16805;52.956;5.906;2023-08-30T00:51:56;15.70;99.90
29817;DHT22;16805;52.956;5.906;2023-08-30T00:54:46;15.70;99.90
29817;DHT22;16805;52.956;5.906;2023-08-30T00:57:31;15.70;99.90
29817;DHT22;16805;52.956;5.906;2023-08-30T01:03:37;15.70;99.90
29817;DHT22;16805;52.956;5.906;2023-08-30T01:06:24;15.60;99.90
29817;DHT22;16805;52.956;5.906;2023-08-30T01:08:58;15.50;99.90
29817;DHT22;16805;52.956;5.906;2023-08-30T01:11:48;15.40;99.90
29817;DHT22;16805;52.956;5.906;2023-08-30T01:18:11;15.30;99.90
29817;DHT22;16805;52.956;5.906;2023-08-30T01:21:04;15.20;99.90
29817;DHT22;16805;52.956;5.906;2023-08-30T01:24:01;15.10;99.90
29817;DHT22;16805;52.956;5.906;2023-08-30T01:27:15;15.10;99.90
29817;DHT22;16805;52.956;5.906;2023-08-30T01:32:30;15.00;99.90
29817;DHT22;16805;52.956;5.906;2023-08-30T01:34:56;14.90;99.90
29817;DHT22;16805;52.956;5.906;2023-08-30T01:37:24;14.90;99.90
29817;DHT22;16805;52.956;5.906;2023-08-30T01:39:52;14.80;99.90
29817;DHT22;16805;52.956;5.906;2023-08-30T01:42:18;14.80;99.90
29817;DHT22;16805;52.956;5.906;2023-08-30T01:44:49;14.70;99.90
29817;DHT22;16805;52.956;5.906;2023-08-30T01:47:16;14.70;99.90
29817;DHT22;16805;52.956;5.906;2023-08-30T01:49:43;14.60;99.90
29817;DHT22;16805;52.956;5.906;2023-08-30T01:52:10;14.60;99.90
29817;DHT22;16805;52.956;5.906;2023-08-30T01:54:37;14.60;99.90
29817;DHT22;16805;52.956;5.906;2023-08-30T01:57:04;14.50;99.90
29817;DHT22;16805;52.956;5.906;2023-08-30T01:59:31;14.50;99.90
29817;DHT22;16805;52.956;5.906;2023-08-30T02:01:56;14.40;99.90
29817;DHT22;16805;52.956;5.906;2023-08-30T02:04:22;14.40;99.90
29817;DHT22;16805;52.956;5.906;2023-08-30T02:06:55;14.40;99.90
29817;DHT22;16805;52.956;5.906;2023-08-30T02:12:16;14.30;99.90
29817;DHT22;16805;52.956;5.906;2023-08-30T02:14:46;14.30;99.90
29817;DHT22;16805;52.956;5.906;2023-08-30T02:17:15;14.30;99.90
29817;DHT22;16805;52.956;5.906;2023-08-30T02:19:44;14.30;99.90
29817;DHT22;16805;52.956;5.906;2023-08-30T02:22:10;14.30;99.90
29817;DHT22;16805;52.956;5.906;2023-08-30T02:24:36;14.30;99.90
29817;DHT22;16805;52.956;5.906;2023-08-30T02:27:02;14.30;99.90
29817;DHT22;16805;52.956;5.906;2023-08-30T02:29:28;14.30;99.90
29817;DHT22;16805;52.956;5.906;2023-08-30T02:31:53;14.30;99.90
29817;DHT22;16805;52.956;5.906;2023-08-30T02:34:19;14.30;99.90
29817;DHT22;16805;52.956;5.906;2023-08-30T02:36:45;14.40;99.90
29817;DHT22;16805;52.956;5.906;2023-08-30T02:39:13;14.30;99.90
29817;DHT22;16805;52.956;5.906;2023-08-30T02:41:39;14.30;99.90
29817;DHT22;16805;52.956;5.906;2023-08-30T02:44:08;14.30;99.90
29817;DHT22;16805;52.956;5.906;2023-08-30T02:46:34;14.30;99.90
29817;DHT22;16805;52.956;5.906;2023-08-30T02:48:59;14.20;99.90
29817;DHT22;16805;52.956;5.906;2023-08-30T02:51:25;14.20;99.90
29817;DHT22;16805;52.956;5.906;2023-08-30T02:53:51;14.20;99.90
29817;DHT22;16805;52.956;5.906;2023-08-30T02:56:16;14.20;99.90
29817;DHT22;16805;52.956;5.906;2023-08-30T02:58:42;14.20;99.90
29817;DHT22;16805;52.956;5.906;2023-08-30T03:01:08;14.30;99.90
29817;DHT22;16805;52.956;5.906;2023-08-30T03:03:34;14.20;99.90
29817;DHT22;16805;52.956;5.906;2023-08-30T03:06:01;14.20;99.90
29817;DHT22;16805;52.956;5.906;2023-08-30T03:08:27;14.20;99.90
29817;DHT22;16805;52.956;5.906;2023-08-30T03:10:52;14.20;99.90
29817;DHT22;16805;52.956;5.906;2023-08-30T03:13:18;14.10;99.90
29817;DHT22;16805;52.956;5.906;2023-08-30T03:15:44;14.10;99.90
29817;DHT22;16805;52.956;5.906;2023-08-30T03:18:10;14.10;99.90
29817;DHT22;16805;52.956;5.906;2023-08-30T03:20:36;14.10;99.90
29817;DHT22;16805;52.956;5.906;2023-08-30T03:23:01;14.10;99.90
29817;DHT22;16805;52.956;5.906;2023-08-30T03:25:30;14.10;99.90
29817;DHT22;16805;52.956;5.906;2023-08-30T03:27:56;14.10;99.90
29817;DHT22;16805;52.956;5.906;2023-08-30T03:30:21;14.10;99.90
29817;DHT22;16805;52.956;5.906;2023-08-30T03:32:47;14.10;99.90
29817;DHT22;16805;52.956;5.906;2023-08-30T03:35:13;14.10;99.90
29817;DHT22;16805;52.956;5.906;2023-08-30T03:37:53;14.00;99.90
29817;DHT22;16805;52.956;5.906;2023-08-30T03:40:52;14.10;99.90
29817;DHT22;16805;52.956;5.906;2023-08-30T03:43:22;14.00;99.90
29817;DHT22;16805;52.956;5.906;2023-08-30T03:46:16;14.00;99.90
29817;DHT22;16805;52.956;5.906;2023-08-30T03:48:48;14.00;99.90
29817;DHT22;16805;52.956;5.906;2023-08-30T03:51:49;13.90;99.90
29817;DHT22;16805;52.956;5.906;2023-08-30T03:54:47;13.90;99.90
29817;DHT22;16805;52.956;5.906;2023-08-30T03:57:23;13.90;99.90
29817;DHT22;16805;52.956;5.906;2023-08-30T04:00:29;13.90;99.90
29817;DHT22;16805;52.956;5.906;2023-08-30T04:03:37;13.90;99.90
29817;DHT22;16805;52.956;5.906;2023-08-30T04:12:53;13.90;99.90
29817;DHT22;16805;52.956;5.906;2023-08-30T04:15:40;13.90;99.90
29817;DHT22;16805;52.956;5.906;2023-08-30T04:18:16;13.90;99.90
29817;DHT22;16805;52.956;5.906;2023-08-30T04:21:12;13.90;99.90
29817;DHT22;16805;52.956;5.906;2023-08-30T04:24:01;13.90;99.90
29817;DHT22;16805;52.956;5.906;2023-08-30T04:26:53;13.90;99.90
29817;DHT22;16805;52.956;5.906;2023-08-30T04:30:02;13.90;99.90
29817;DHT22;16805;52.956;5.906;2023-08-30T04:33:00;13.90;99.90
29817;DHT22;16805;52.956;5.906;2023-08-30T04:39:15;13.90;99.90
29817;DHT22;16805;52.956;5.906;2023-08-30T04:42:20;13.90;99.90
29817;DHT22;16805;52.956;5.906;2023-08-30T04:45:14;14.00;99.90
29817;DHT22;16805;52.956;5.906;2023-08-30T04:47:59;14.00;99.90
29817;DHT22;16805;52.956;5.906;2023-08-30T04:53:53;14.00;99.90
29817;DHT22;16805;52.956;5.906;2023-08-30T04:56:50;14.00;99.90
29817;DHT22;16805;52.956;5.906;2023-08-30T05:00:11;14.00;99.90
29817;DHT22;16805;52.956;5.906;2023-08-30T05:02:38;14.00;99.90
29817;DHT22;16805;52.956;5.906;2023-08-30T05:05:20;14.00;99.90
29817;DHT22;16805;52.956;5.906;2023-08-30T05:08:03;14.10;99.90
29817;DHT22;16805;52.956;5.906;2023-08-30T05:14:23;14.10;99.90
29817;DHT22;16805;52.956;5.906;2023-08-30T05:17:31;14.10;99.90
29817;DHT22;16805;52.956;5.906;2023-08-30T05:20:31;14.10;99.90
29817;DHT22;16805;52.956;5.906;2023-08-30T05:23:02;14.10;99.90
29817;DHT22;16805;52.956;5.906;2023-08-30T05:25:38;14.10;99.90
29817;DHT22;16805;52.956;5.906;2023-08-30T05:28:10;14.10;99.90
29817;DHT22;16805;52.956;5.906;2023-08-30T05:33:30;14.20;99.90
29817;DHT22;16805;52.956;5.906;2023-08-30T05:35:57;14.20;99.90
29817;DHT22;16805;52.956;5.906;2023-08-30T05:38:24;14.10;99.90
29817;DHT22;16805;52.956;5.906;2023-08-30T05:40:50;14.20;99.90
29817;DHT22;16805;52.956;5.906;2023-08-30T05:43:16;14.20;99.90
29817;DHT22;16805;52.956;5.906;2023-08-30T05:45:41;14.20;99.90
29817;DHT22;16805;52.956;5.906;2023-08-30T05:48:07;14.20;99.90
29817;DHT22;16805;52.956;5.906;2023-08-30T05:50:33;14.20;99.90
29817;DHT22;16805;52.956;5.906;2023-08-30T05:52:58;14.20;99.90
29817;DHT22;16805;52.956;5.906;2023-08-30T05:55:24;14.20;99.90
29817;DHT22;16805;52.956;5.906;2023-08-30T05:57:50;14.20;99.90
29817;DHT22;16805;52.956;5.906;2023-08-30T06:00:16;14.20;99.90
29817;DHT22;16805;52.956;5.906;2023-08-30T06:02:41;14.20;99.90
29817;DHT22;16805;52.956;5.906;2023-08-30T06:05:07;14.20;99.90
29817;DHT22;16805;52.956;5.906;2023-08-30T06:07:33;14.20;99.90
29817;DHT22;16805;52.956;5.906;2023-08-30T06:09:59;14.20;99.90
29817;DHT22;16805;52.956;5.906;2023-08-30T06:12:25;14.30;99.90
29817;DHT22;16805;52.956;5.906;2023-08-30T06:14:52;14.20;99.90
29817;DHT22;16805;52.956;5.906;2023-08-30T06:17:20;14.30;99.90
29817;DHT22;16805;52.956;5.906;2023-08-30T06:19:47;14.30;99.90
29817;DHT22;16805;52.956;5.906;2023-08-30T06:22:16;14.30;99.90
29817;DHT22;16805;52.956;5.906;2023-08-30T06:24:42;14.30;99.90
29817;DHT22;16805;52.956;5.906;2023-08-30T06:27:08;14.30;99.90
29817;DHT22;16805;52.956;5.906;2023-08-30T06:29:33;14.30;99.90
29817;DHT22;16805;52.956;5.906;2023-08-30T06:31:59;14.40;99.90
29817;DHT22;16805;52.956;5.906;2023-08-30T06:34:25;14.40;99.90
29817;DHT22;16805;52.956;5.906;2023-08-30T06:36:50;14.50;99.90
29817;DHT22;16805;52.956;5.906;2023-08-30T06:39:17;14.50;99.90
29817;DHT22;16805;52.956;5.906;2023-08-30T06:41:43;14.50;99.90
29817;DHT22;16805;52.956;5.906;2023-08-30T06:44:09;14.50;99.90
29817;DHT22;16805;52.956;5.906;2023-08-30T06:46:34;14.60;99.90
29817;DHT22;16805;52.956;5.906;2023-08-30T06:49:00;14.60;99.90
29817;DHT22;16805;52.956;5.906;2023-08-30T06:51:26;14.80;99.90
29817;DHT22;16805;52.956;5.906;2023-08-30T06:53:51;14.90;99.90
29817;DHT22;16805;52.956;5.906;2023-08-30T06:56:17;14.90;99.90
29817;DHT22;16805;52.956;5.906;2023-08-30T06:58:43;15.10;99.90
29817;DHT22;16805;52.956;5.906;2023-08-30T07:01:08;15.10;99.90
29817;DHT22;16805;52.956;5.906;2023-08-30T07:03:34;15.20;99.90
29817;DHT22;16805;52.956;5.906;2023-08-30T07:06:00;15.40;99.90
29817;DHT22;16805;52.956;5.906;2023-08-30T07:08:25;15.50;99.90
29817;DHT22;16805;52.956;5.906;2023-08-30T07:10:52;15.80;99.90
29817;DHT22;16805;52.956;5.906;2023-08-30T07:13:18;16.10;99.90
29817;DHT22;16805;52.956;5.906;2023-08-30T07:15:43;16.30;99.90
29817;DHT22;16805;52.956;5.906;2023-08-30T07:18:09;16.40;99.90
29817;DHT22;16805;52.956;5.906;2023-08-30T07:20:35;16.50;99.90
29817;DHT22;16805;52.956;5.906;2023-08-30T07:23:04;16.50;99.90
29817;DHT22;16805;52.956;5.906;2023-08-30T07:25:30;16.50;99.90
29817;DHT22;16805;52.956;5.906;2023-08-30T07:27:58;16.50;99.90
29817;DHT22;16805;52.956;5.906;2023-08-30T07:30:24;16.40;99.90
29817;DHT22;16805;52.956;5.906;2023-08-30T07:32:50;16.40;99.90
29817;DHT22;16805;52.956;5.906;2023-08-30T07:35:16;16.30;99.90
29817;DHT22;16805;52.956;5.906;2023-08-30T07:37:41;16.30;99.90
29817;DHT22;16805;52.956;5.906;2023-08-30T07:40:08;16.30;99.90
29817;DHT22;16805;52.956;5.906;2023-08-30T07:42:34;16.30;99.90
29817;DHT22;16805;52.956;5.906;2023-08-30T07:45:00;16.30;99.90
29817;DHT22;16805;52.956;5.906;2023-08-30T07:47:25;16.30;99.90
29817;DHT22;16805;52.956;5.906;2023-08-30T07:49:51;16.30;99.90
29817;DHT22;16805;52.956;5.906;2023-08-30T07:52:17;16.40;99.90
29817;DHT22;16805;52.956;5.906;2023-08-30T07:54:42;16.40;99.90
29817;DHT22;16805;52.956;5.906;2023-08-30T07:57:08;16.40;99.90
29817;DHT22;16805;52.956;5.906;2023-08-30T07:59:35;16.50;99.90
29817;DHT22;16805;52.956;5.906;2023-08-30T08:02:02;16.60;99.90
29817;DHT22;16805;52.956;5.906;2023-08-30T08:04:28;16.70;99.90
29817;DHT22;16805;52.956;5.906;2023-08-30T08:06:54;16.70;99.90
29817;DHT22;16805;52.956;5.906;2023-08-30T08:09:19;16.70;99.90
29817;DHT22;16805;52.956;5.906;2023-08-30T08:11:50;16.80;99.90
29817;DHT22;16805;52.956;5.906;2023-08-30T08:14:16;16.70;99.90
29817;DHT22;16805;52.956;5.906;2023-08-30T08:16:41;16.70;99.90
29817;DHT22;16805;52.956;5.906;2023-08-30T08:19:08;16.70;99.90
29817;DHT22;16805;52.956;5.906;2023-08-30T08:21:34;16.70;99.90
29817;DHT22;16805;52.956;5.906;2023-08-30T08:24:00;16.70;99.90
29817;DHT22;16805;52.956;5.906;2023-08-30T08:26:26;16.70;99.90
29817;DHT22;16805;52.956;5.906;2023-08-30T08:28:54;16.70;99.90
29817;DHT22;16805;52.956;5.906;2023-08-30T08:31:20;16.60;99.90
29817;DHT22;16805;52.956;5.906;2023-08-30T08:33:51;16.70;99.90
29817;DHT22;16805;52.956;5.906;2023-08-30T08:36:18;16.70;99.90
29817;DHT22;16805;52.956;5.906;2023-08-30T08:38:44;16.60;99.90
29817;DHT22;16805;52.956;5.906;2023-08-30T08:41:12;16.60;99.90
29817;DHT22;16805;52.956;5.906;2023-08-30T08:43:42;16.60;99.90
29817;DHT22;16805;52.956;5.906;2023-08-30T08:46:10;16.70;99.90
29817;DHT22;16805;52.956;5.906;2023-08-30T08:48:39;16.60;99.90
29817;DHT22;16805;52.956;5.906;2023-08-30T08:51:06;16.60;99.90
29817;DHT22;16805;52.956;5.906;2023-08-30T08:53:32;16.60;99.90
29817;DHT22;16805;52.956;5.906;2023-08-30T08:55:58;16.60;99.90
29817;DHT22;16805;52.956;5.906;2023-08-30T08:58:26;16.70;99.90
29817;DHT22;16805;52.956;5.906;2023-08-30T09:00:54;16.60;99.90
29817;DHT22;16805;52.956;5.906;2023-08-30T09:03:21;16.60;99.90
29817;DHT22;16805;52.956;5.906;2023-08-30T09:05:49;16.60;99.90
29817;DHT22;16805;52.956;5.906;2023-08-30T09:08:16;16.60;99.90
29817;DHT22;16805;52.956;5.906;2023-08-30T09:10:42;16.60;99.90
29817;DHT22;16805;52.956;5.906;2023-08-30T09:13:10;16.50;99.90
29817;DHT22;16805;52.956;5.906;2023-08-30T09:15:36;16.50;99.90
29817;DHT22;16805;52.956;5.906;2023-08-30T09:18:17;16.50;99.90
29817;DHT22;16805;52.956;5.906;2023-08-30T09:20:43;16.40;99.90
29817;DHT22;16805;52.956;5.906;2023-08-30T09:23:22;16.40;99.90
29817;DHT22;16805;52.956;5.906;2023-08-30T09:25:55;16.30;99.90
29817;DHT22;16805;52.956;5.906;2023-08-30T09:28:21;16.30;99.90
29817;DHT22;16805;52.956;5.906;2023-08-30T09:30:50;16.30;99.90
29817;DHT22;16805;52.956;5.906;2023-08-30T09:33:21;16.30;99.90
29817;DHT22;16805;52.956;5.906;2023-08-30T09:35:47;16.30;99.90
29817;DHT22;16805;52.956;5.906;2023-08-30T09:38:21;16.20;99.90
29817;DHT22;16805;52.956;5.906;2023-08-30T09:40:50;16.30;99.90
29817;DHT22;16805;52.956;5.906;2023-08-30T09:43:20;16.30;99.90
29817;DHT22;16805;52.956;5.906;2023-08-30T09:45:52;16.30;99.90
29817;DHT22;16805;52.956;5.906;2023-08-30T09:48:22;16.30;99.90
29817;DHT22;16805;52.956;5.906;2023-08-30T09:50:51;16.30;99.90
29817;DHT22;16805;52.956;5.906;2023-08-30T09:53:22;16.40;99.90
29817;DHT22;16805;52.956;5.906;2023-08-30T09:55:52;16.30;99.90
29817;DHT22;16805;52.956;5.906;2023-08-30T09:58:21;16.40;99.90
29817;DHT22;16805;52.956;5.906;2023-08-30T10:00:48;16.50;99.90
29817;DHT22;16805;52.956;5.906;2023-08-30T10:03:15;16.50;99.90
29817;DHT22;16805;52.956;5.906;2023-08-30T10:05:43;16.50;99.90
29817;DHT22;16805;52.956;5.906;2023-08-30T10:08:12;16.50;99.90
29817;DHT22;16805;52.956;5.906;2023-08-30T10:10:44;16.50;99.90
29817;DHT22;16805;52.956;5.906;2023-08-30T10:13:11;16.50;99.90
29817;DHT22;16805;52.956;5.906;2023-08-30T10:15:43;16.50;99.90
29817;DHT22;16805;52.956;5.906;2023-08-30T10:18:15;16.50;99.90
29817;DHT22;16805;52.956;5.906;2023-08-30T10:20:44;16.50;99.90
29817;DHT22;16805;52.956;5.906;2023-08-30T10:23:11;16.50;99.90
29817;DHT22;16805;52.956;5.906;2023-08-30T10:25:39;16.60;99.90
29817;DHT22;16805;52.956;5.906;2023-08-30T10:28:06;16.50;99.90
29817;DHT22;16805;52.956;5.906;2023-08-30T10:30:32;16.60;99.90
29817;DHT22;16805;52.956;5.906;2023-08-30T10:32:59;16.60;99.90
29817;DHT22;16805;52.956;5.906;2023-08-30T10:35:25;16.60;99.90
29817;DHT22;16805;52.956;5.906;2023-08-30T10:37:56;16.60;99.90
29817;DHT22;16805;52.956;5.906;2023-08-30T10:40:22;16.50;99.90
29817;DHT22;16805;52.956;5.906;2023-08-30T10:43:04;16.50;99.90
29817;DHT22;16805;52.956;5.906;2023-08-30T10:45:30;16.50;99.90
29817;DHT22;16805;52.956;5.906;2023-08-30T10:47:58;16.50;99.90
29817;DHT22;16805;52.956;5.906;2023-08-30T10:50:31;16.60;99.90
29817;DHT22;16805;52.956;5.906;2023-08-30T10:52:58;16.60;99.90
29817;DHT22;16805;52.956;5.906;2023-08-30T10:55:24;16.50;99.90
29817;DHT22;16805;52.956;5.906;2023-08-30T10:58:01;16.50;99.90
29817;DHT22;16805;52.956;5.906;2023-08-30T11:00:30;16.50;99.90
29817;DHT22;16805;52.956;5.906;2023-08-30T11:02:56;16.50;99.90
29817;DHT22;16805;52.956;5.906;2023-08-30T11:05:24;16.50;99.90
29817;DHT22;16805;52.956;5.906;2023-08-30T11:07:50;16.50;99.90
29817;DHT22;16805;52.956;5.906;2023-08-30T11:10:17;16.40;99.90
29817;DHT22;16805;52.956;5.906;2023-08-30T11:12:44;16.40;99.90
29817;DHT22;16805;52.956;5.906;2023-08-30T11:15:11;16.40;99.90
29817;DHT22;16805;52.956;5.906;2023-08-30T11:17:42;16.30;99.90
29817;DHT22;16805;52.956;5.906;2023-08-30T11:20:15;16.30;99.90
29817;DHT22;16805;52.956;5.906;2023-08-30T11:22:45;16.40;99.90
29817;DHT22;16805;52.956;5.906;2023-08-30T11:25:15;16.40;99.90
29817;DHT22;16805;52.956;5.906;2023-08-30T11:27:42;16.40;99.90
29817;DHT22;16805;52.956;5.906;2023-08-30T11:30:10;16.30;99.90
29817;DHT22;16805;52.956;5.906;2023-08-30T11:32:41;16.30;99.90
29817;DHT22;16805;52.956;5.906;2023-08-30T11:35:12;16.30;99.90
29817;DHT22;16805;52.956;5.906;2023-08-30T11:37:43;16.40;99.90
29817;DHT22;16805;52.956;5.906;2023-08-30T11:40:14;16.40;99.90
29817;DHT22;16805;52.956;5.906;2023-08-30T11:42:43;16.40;99.90
29817;DHT22;16805;52.956;5.906;2023-08-30T11:45:13;16.40;99.90
29817;DHT22;16805;52.956;5.906;2023-08-30T11:47:41;16.40;99.90
29817;DHT22;16805;52.956;5.906;2023-08-30T11:50:08;16.40;99.90
29817;DHT22;16805;52.956;5.906;2023-08-30T11:52:36;16.40;99.90
29817;DHT22;16805;52.956;5.906;2023-08-30T11:55:04;16.40;99.90
29817;DHT22;16805;52.956;5.906;2023-08-30T11:57:36;16.40;99.90
29817;DHT22;16805;52.956;5.906;2023-08-30T12:00:09;16.40;99.90
29817;DHT22;16805;52.956;5.906;2023-08-30T12:02:36;16.40;99.90
29817;DHT22;16805;52.956;5.906;2023-08-30T12:05:04;16.30;99.90
29817;DHT22;16805;52.956;5.906;2023-08-30T12:07:32;16.30;99.90
29817;DHT22;16805;52.956;5.906;2023-08-30T12:10:10;16.30;99.90
29817;DHT22;16805;52.956;5.906;2023-08-30T12:12:44;16.30;99.90
29817;DHT22;16805;52.956;5.906;2023-08-30T12:15:14;16.30;99.90
29817;DHT22;16805;52.956;5.906;2023-08-30T12:17:41;16.30;99.90
29817;DHT22;16805;52.956;5.906;2023-08-30T12:20:15;16.30;99.90
29817;DHT22;16805;52.956;5.906;2023-08-30T12:22:44;16.30;99.90
29817;DHT22;16805;52.956;5.906;2023-08-30T12:25:22;16.30;99.90
29817;DHT22;16805;52.956;5.906;2023-08-30T12:27:50;16.30;99.90
29817;DHT22;16805;52.956;5.906;2023-08-30T12:30:17;16.30;99.90
29817;DHT22;16805;52.956;5.906;2023-08-30T12:32:45;16.30;99.90
29817;DHT22;16805;52.956;5.906;2023-08-30T12:35:11;16.20;99.90
29817;DHT22;16805;52.956;5.906;2023-08-30T12:37:37;16.20;99.90
29817;DHT22;16805;52.956;5.906;2023-08-30T12:40:04;16.20;99.90
29817;DHT22;16805;52.956;5.906;2023-08-30T12:42:33;16.30;99.90
29817;DHT22;16805;52.956;5.906;2023-08-30T12:45:00;16.30;99.90
29817;DHT22;16805;52.956;5.906;2023-08-30T12:47:28;16.30;99.90
29817;DHT22;16805;52.956;5.906;2023-08-30T12:49:54;16.20;99.90
29817;DHT22;16805;52.956;5.906;2023-08-30T12:52:24;16.30;99.90
29817;DHT22;16805;52.956;5.906;2023-08-30T12:54:50;16.20;99.90
29817;DHT22;16805;52.956;5.906;2023-08-30T12:57:17;16.20;99.90
29817;DHT22;16805;52.956;5.906;2023-08-30T12:59:43;16.20;99.90
29817;DHT22;16805;52.956;5.906;2023-08-30T13:02:10;16.20;99.90
29817;DHT22;16805;52.956;5.906;2023-08-30T13:04:37;16.20;99.90
29817;DHT22;16805;52.956;5.906;2023-08-30T13:07:04;16.20;99.90
29817;DHT22;16805;52.956;5.906;2023-08-30T13:09:30;16.20;99.90
29817;DHT22;16805;52.956;5.906;2023-08-30T13:11:57;16.20;99.90
29817;DHT22;16805;52.956;5.906;2023-08-30T13:14:23;16.20;99.90
29817;DHT22;16805;52.956;5.906;2023-08-30T13:16:49;16.20;99.90
29817;DHT22;16805;52.956;5.906;2023-08-30T13:19:15;16.20;99.90
29817;DHT22;16805;52.956;5.906;2023-08-30T13:21:42;16.20;99.90
29817;DHT22;16805;52.956;5.906;2023-08-30T13:24:08;16.10;99.90
29817;DHT22;16805;52.956;5.906;2023-08-30T13:26:35;16.10;99.90
29817;DHT22;16805;52.956;5.906;2023-08-30T13:29:01;16.20;99.90
29817;DHT22;16805;52.956;5.906;2023-08-30T13:31:28;16.20;99.90
29817;DHT22;16805;52.956;5.906;2023-08-30T13:33:54;16.20;99.90
29817;DHT22;16805;52.956;5.906;2023-08-30T13:36:21;16.20;99.90
29817;DHT22;16805;52.956;5.906;2023-08-30T13:38:47;16.30;99.90
29817;DHT22;16805;52.956;5.906;2023-08-30T13:41:13;16.30;99.90
29817;DHT22;16805;52.956;5.906;2023-08-30T13:43:39;16.30;99.90
29817;DHT22;16805;52.956;5.906;2023-08-30T13:46:05;16.30;99.90
29817;DHT22;16805;52.956;5.906;2023-08-30T13:48:31;16.40;99.90
29817;DHT22;16805;52.956;5.906;2023-08-30T13:50:57;16.50;99.90
29817;DHT22;16805;52.956;5.906;2023-08-30T13:53:24;16.60;99.90
29817;DHT22;16805;52.956;5.906;2023-08-30T13:55:51;16.70;99.90
29817;DHT22;16805;52.956;5.906;2023-08-30T13:58:18;16.70;99.90
29817;DHT22;16805;52.956;5.906;2023-08-30T14:00:44;16.90;99.90
29817;DHT22;16805;52.956;5.906;2023-08-30T14:03:10;16.90;99.90
29817;DHT22;16805;52.956;5.906;2023-08-30T14:05:38;16.90;99.90
29817;DHT22;16805;52.956;5.906;2023-08-30T14:08:06;17.00;99.90
29817;DHT22;16805;52.956;5.906;2023-08-30T14:10:32;17.00;99.90
29817;DHT22;16805;52.956;5.906;2023-08-30T14:12:58;17.10;99.90
29817;DHT22;16805;52.956;5.906;2023-08-30T14:15:24;17.10;99.90
29817;DHT22;16805;52.956;5.906;2023-08-30T14:17:50;17.20;99.90
29817;DHT22;16805;52.956;5.906;2023-08-30T14:20:16;17.20;99.90
29817;DHT22;16805;52.956;5.906;2023-08-30T14:22:42;17.20;99.90
29817;DHT22;16805;52.956;5.906;2023-08-30T14:25:08;17.20;99.90
29817;DHT22;16805;52.956;5.906;2023-08-30T14:27:35;17.20;99.90
29817;DHT22;16805;52.956;5.906;2023-08-30T14:30:01;17.30;99.90
29817;DHT22;16805;52.956;5.906;2023-08-30T14:32:27;17.30;99.90
29817;DHT22;16805;52.956;5.906;2023-08-30T14:34:57;17.30;99.90
29817;DHT22;16805;52.956;5.906;2023-08-30T14:37:23;17.30;99.90
29817;DHT22;16805;52.956;5.906;2023-08-30T14:39:49;17.40;99.90
29817;DHT22;16805;52.956;5.906;2023-08-30T14:42:16;17.40;99.90
29817;DHT22;16805;52.956;5.906;2023-08-30T14:44:42;17.50;99.90
29817;DHT22;16805;52.956;5.906;2023-08-30T14:47:11;17.50;99.90
29817;DHT22;16805;52.956;5.906;2023-08-30T14:49:37;17.50;99.90
29817;DHT22;16805;52.956;5.906;2023-08-30T14:52:05;17.50;99.90
29817;DHT22;16805;52.956;5.906;2023-08-30T14:54:30;17.50;99.90
29817;DHT22;16805;52.956;5.906;2023-08-30T14:56:56;17.50;99.90
29817;DHT22;16805;52.956;5.906;2023-08-30T14:59:22;17.40;99.90
29817;DHT22;16805;52.956;5.906;2023-08-30T15:01:48;17.40;99.90
29817;DHT22;16805;52.956;5.906;2023-08-30T15:04:14;17.40;99.90
29817;DHT22;16805;52.956;5.906;2023-08-30T15:06:40;17.40;99.90
29817;DHT22;16805;52.956;5.906;2023-08-30T15:09:09;17.30;99.90
29817;DHT22;16805;52.956;5.906;2023-08-30T15:11:36;17.30;99.90
29817;DHT22;16805;52.956;5.906;2023-08-30T15:14:03;17.30;99.90
29817;DHT22;16805;52.956;5.906;2023-08-30T15:16:29;17.30;99.90
29817;DHT22;16805;52.956;5.906;2023-08-30T15:18:55;17.30;99.90
29817;DHT22;16805;52.956;5.906;2023-08-30T15:21:21;17.30;99.90
29817;DHT22;16805;52.956;5.906;2023-08-30T15:23:47;17.40;99.90
29817;DHT22;16805;52.956;5.906;2023-08-30T15:26:12;17.50;99.90
29817;DHT22;16805;52.956;5.906;2023-08-30T15:28:43;17.50;99.90
29817;DHT22;16805;52.956;5.906;2023-08-30T15:31:13;17.60;99.90
29817;DHT22;16805;52.956;5.906;2023-08-30T15:33:39;17.60;99.90
29817;DHT22;16805;52.956;5.906;2023-08-30T15:36:05;17.60;99.90
29817;DHT22;16805;52.956;5.906;2023-08-30T15:38:31;17.60;99.90
29817;DHT22;16805;52.956;5.906;2023-08-30T15:40:58;17.60;99.90
29817;DHT22;16805;52.956;5.906;2023-08-30T15:43:25;17.60;99.90
29817;DHT22;16805;52.956;5.906;2023-08-30T15:45:51;17.60;99.90
29817;DHT22;16805;52.956;5.906;2023-08-30T15:48:17;17.60;99.90
29817;DHT22;16805;52.956;5.906;2023-08-30T15:50:44;17.60;99.90
29817;DHT22;16805;52.956;5.906;2023-08-30T15:53:12;17.70;99.90
29817;DHT22;16805;52.956;5.906;2023-08-30T15:55:38;17.60;99.90
29817;DHT22;16805;52.956;5.906;2023-08-30T15:58:04;17.60;99.90
29817;DHT22;16805;52.956;5.906;2023-08-30T16:00:30;17.60;99.90
29817;DHT22;16805;52.956;5.906;2023-08-30T16:02:58;17.60;99.90
29817;DHT22;16805;52.956;5.906;2023-08-30T16:05:25;17.70;99.90
29817;DHT22;16805;52.956;5.906;2023-08-30T16:07:51;17.70;99.90
29817;DHT22;16805;52.956;5.906;2023-08-30T16:10:17;17.70;99.90
29817;DHT22;16805;52.956;5.906;2023-08-30T16:12:43;17.70;99.90
29817;DHT22;16805;52.956;5.906;2023-08-30T16:15:09;17.70;99.90
29817;DHT22;16805;52.956;5.906;2023-08-30T16:17:34;17.70;99.90
29817;DHT22;16805;52.956;5.906;2023-08-30T16:20:00;17.70;99.90
29817;DHT22;16805;52.956;5.906;2023-08-30T16:22:27;17.70;99.90
29817;DHT22;16805;52.956;5.906;2023-08-30T16:24:53;17.70;99.90